sensor_id;sensor_type;location;lat;lon;timestamp;pressure;altitude;pressure_sealevel;temperature;humidity
81816;BME280;71249;52.084;5.304;2023-07-31T00:01:57;100958.0;;;16.89;82.77
81816;BME280;71249;52.084;5.304;2023-07-31T00:03:34;100953.0;;;17.0;82.47
81816;BME280;71249;52.084;5.304;2023-07-31T00:05:11;100950.0;;;16.93;82.81
81816;BME280;71249;52.084;5.304;2023-07-31T00:06:48;100948.0;;;17.09;82.05
81816;BME280;71249;52.084;5.304;2023-07-31T00:10:01;100938.0;;;16.96;82.62
81816;BME280;71249;52.084;5.304;2023-07-31T00:11:38;100939.0;;;16.97;82.82
81816;BME280;71249;52.084;5.304;2023-07-31T00:13:15;100936.0;;;17.0;82.86
81816;BME280;71249;52.084;5.304;2023-07-31T00:16:29;100940.0;;;17.02;82.88
81816;BME280;71249;52.084;5.304;2023-07-31T00:18:05;100930.0;;;17.07;82.79
81816;BME280;71249;52.084;5.304;2023-07-31T00:19:43;100921.0;;;17.06;83.09
81816;BME280;71249;52.084;5.304;2023-07-31T00:22:57;100928.0;;;17.16;82.92
81816;BME280;71249;52.084;5.304;2023-07-31T00:24:34;100923.0;;;17.2;82.95
81816;BME280;71249;52.084;5.304;2023-07-31T00:26:11;100920.0;;;17.18;83.07
81816;BME280;71249;52.084;5.304;2023-07-31T00:27:48;100927.0;;;17.34;82.75
81816;BME280;71249;52.084;5.304;2023-07-31T00:31:01;100924.0;;;17.23;83.11
81816;BME280;71249;52.084;5.304;2023-07-31T00:32:38;100921.0;;;17.41;82.62
81816;BME280;71249;52.084;5.304;2023-07-31T00:34:14;100921.0;;;17.45;82.85
81816;BME280;71249;52.084;5.304;2023-07-31T00:37:28;100918.0;;;17.41;82.99
81816;BME280;71249;52.084;5.304;2023-07-31T00:39:05;100918.0;;;17.5;82.96
81816;BME280;71249;52.084;5.304;2023-07-31T00:40:42;100914.0;;;17.55;83.03
81816;BME280;71249;52.084;5.304;2023-07-31T00:43:54;100919.0;;;17.7;82.81
81816;BME280;71249;52.084;5.304;2023-07-31T00:45:32;100911.0;;;17.68;83.22
81816;BME280;71249;52.084;5.304;2023-07-31T00:47:09;100912.0;;;17.66;83.32
81816;BME280;71249;52.084;5.304;2023-07-31T00:48:46;100917.0;;;17.84;83.19
81816;BME280;71249;52.084;5.304;2023-07-31T00:52:01;100918.0;;;17.89;83.29
81816;BME280;71249;52.084;5.304;2023-07-31T00:53:38;100921.0;;;17.93;83.48
81816;BME280;71249;52.084;5.304;2023-07-31T00:55:15;100916.0;;;17.86;83.81
81816;BME280;71249;52.084;5.304;2023-07-31T00:58:31;100911.0;;;18.03;83.44
81816;BME280;71249;52.084;5.304;2023-07-31T01:00:08;100912.0;;;17.98;83.68
81816;BME280;71249;52.084;5.304;2023-07-31T01:01:46;100909.0;;;18.06;83.5
81816;BME280;71249;52.084;5.304;2023-07-31T01:03:23;100907.0;;;18.16;83.11
81816;BME280;71249;52.084;5.304;2023-07-31T01:06:43;100908.0;;;18.27;82.82
81816;BME280;71249;52.084;5.304;2023-07-31T01:08:44;100903.0;;;18.16;82.97
81816;BME280;71249;52.084;5.304;2023-07-31T01:10:27;100912.0;;;18.2;82.86
81816;BME280;71249;52.084;5.304;2023-07-31T01:12:13;100914.0;;;18.28;82.58
81816;BME280;71249;52.084;5.304;2023-07-31T01:13:51;100906.0;;;18.25;82.63
81816;BME280;71249;52.084;5.304;2023-07-31T01:17:04;100905.0;;;18.18;82.92
81816;BME280;71249;52.084;5.304;2023-07-31T01:18:41;100899.0;;;18.09;82.97
81816;BME280;71249;52.084;5.304;2023-07-31T01:20:22;100903.0;;;18.27;82.57
81816;BME280;71249;52.084;5.304;2023-07-31T01:24:22;100905.0;;;18.27;82.54
81816;BME280;71249;52.084;5.304;2023-07-31T01:26:25;100909.0;;;18.32;82.45
81816;BME280;71249;52.084;5.304;2023-07-31T01:29:55;100906.0;;;18.27;82.3
81816;BME280;71249;52.084;5.304;2023-07-31T01:31:36;100898.0;;;18.11;82.33
81816;BME280;71249;52.084;5.304;2023-07-31T01:33:15;100905.0;;;18.03;83.03
81816;BME280;71249;52.084;5.304;2023-07-31T01:34:53;100905.0;;;18.11;83.1
81816;BME280;71249;52.084;5.304;2023-07-31T01:38:08;100909.0;;;18.16;82.89
81816;BME280;71249;52.084;5.304;2023-07-31T01:39:45;100906.0;;;18.18;82.72
81816;BME280;71249;52.084;5.304;2023-07-31T01:41:22;100905.0;;;18.04;82.76
81816;BME280;71249;52.084;5.304;2023-07-31T01:44:35;100905.0;;;18.18;82.58
81816;BME280;71249;52.084;5.304;2023-07-31T01:46:11;100900.0;;;18.25;82.34
81816;BME280;71249;52.084;5.304;2023-07-31T01:47:49;100902.0;;;18.18;82.36
81816;BME280;71249;52.084;5.304;2023-07-31T01:49:26;100905.0;;;18.28;82.52
81816;BME280;71249;52.084;5.304;2023-07-31T01:52:39;100900.0;;;18.37;82.22
81816;BME280;71249;52.084;5.304;2023-07-31T01:54:16;100907.0;;;18.32;82.33
81816;BME280;71249;52.084;5.304;2023-07-31T01:55:52;100902.0;;;18.39;81.97
81816;BME280;71249;52.084;5.304;2023-07-31T01:59:04;100901.0;;;18.25;82.29
81816;BME280;71249;52.084;5.304;2023-07-31T02:00:42;100900.0;;;18.29;82.32
81816;BME280;71249;52.084;5.304;2023-07-31T02:02:19;100901.0;;;18.28;82.16
81816;BME280;71249;52.084;5.304;2023-07-31T02:03:55;100895.0;;;18.23;82.19
81816;BME280;71249;52.084;5.304;2023-07-31T02:08:47;100891.0;;;18.21;82.29
81816;BME280;71249;52.084;5.304;2023-07-31T02:10:24;100883.0;;;18.16;82.35
81816;BME280;71249;52.084;5.304;2023-07-31T02:13:37;100877.0;;;18.16;82.21
81816;BME280;71249;52.084;5.304;2023-07-31T02:15:13;100878.0;;;18.18;82.22
81816;BME280;71249;52.084;5.304;2023-07-31T02:16:50;100873.0;;;18.0;82.5
81816;BME280;71249;52.084;5.304;2023-07-31T02:20:05;100863.0;;;18.16;82.07
81816;BME280;71249;52.084;5.304;2023-07-31T02:21:42;100855.0;;;18.2;81.66
81816;BME280;71249;52.084;5.304;2023-07-31T02:23:19;100853.0;;;18.22;81.72
81816;BME280;71249;52.084;5.304;2023-07-31T02:24:55;100850.0;;;18.16;81.83
81816;BME280;71249;52.084;5.304;2023-07-31T02:28:08;100855.0;;;18.03;81.8
81816;BME280;71249;52.084;5.304;2023-07-31T02:29:45;100852.0;;;18.16;81.66
81816;BME280;71249;52.084;5.304;2023-07-31T02:31:22;100851.0;;;18.23;81.63
81816;BME280;71249;52.084;5.304;2023-07-31T02:34:36;100853.0;;;18.27;81.56
81816;BME280;71249;52.084;5.304;2023-07-31T02:36:12;100846.0;;;18.2;81.72
81816;BME280;71249;52.084;5.304;2023-07-31T02:37:49;100850.0;;;18.04;81.91
81816;BME280;71249;52.084;5.304;2023-07-31T02:41:03;100846.0;;;18.04;82.05
81816;BME280;71249;52.084;5.304;2023-07-31T02:42:40;100847.0;;;18.16;81.73
81816;BME280;71249;52.084;5.304;2023-07-31T02:44:17;100849.0;;;18.21;81.55
81816;BME280;71249;52.084;5.304;2023-07-31T02:45:53;100852.0;;;18.11;81.86
81816;BME280;71249;52.084;5.304;2023-07-31T02:49:06;100846.0;;;18.18;81.86
81816;BME280;71249;52.084;5.304;2023-07-31T02:50:42;100844.0;;;18.2;81.84
81816;BME280;71249;52.084;5.304;2023-07-31T02:52:19;100844.0;;;18.12;81.95
81816;BME280;71249;52.084;5.304;2023-07-31T02:55:32;100844.0;;;18.09;82.04
81816;BME280;71249;52.084;5.304;2023-07-31T02:57:09;100841.0;;;18.21;81.72
81816;BME280;71249;52.084;5.304;2023-07-31T02:58:45;100843.0;;;18.18;81.88
81816;BME280;71249;52.084;5.304;2023-07-31T03:01:58;100835.0;;;18.13;82.03
81816;BME280;71249;52.084;5.304;2023-07-31T03:03:36;100840.0;;;18.14;82.18
81816;BME280;71249;52.084;5.304;2023-07-31T03:05:13;100837.0;;;18.14;82.31
81816;BME280;71249;52.084;5.304;2023-07-31T03:06:50;100837.0;;;18.22;81.98
81816;BME280;71249;52.084;5.304;2023-07-31T03:10:04;100838.0;;;18.11;81.95
81816;BME280;71249;52.084;5.304;2023-07-31T03:11:40;100837.0;;;18.11;81.8
81816;BME280;71249;52.084;5.304;2023-07-31T03:13:17;100840.0;;;18.12;81.95
81816;BME280;71249;52.084;5.304;2023-07-31T03:16:32;100833.0;;;18.13;81.89
81816;BME280;71249;52.084;5.304;2023-07-31T03:18:09;100834.0;;;18.16;81.73
81816;BME280;71249;52.084;5.304;2023-07-31T03:19:45;100835.0;;;18.2;81.44
81816;BME280;71249;52.084;5.304;2023-07-31T03:21:21;100827.0;;;18.13;81.59
81816;BME280;71249;52.084;5.304;2023-07-31T03:24:35;100825.0;;;17.93;82.12
81816;BME280;71249;52.084;5.304;2023-07-31T03:26:12;100822.0;;;18.16;81.53
81816;BME280;71249;52.084;5.304;2023-07-31T03:27:49;100827.0;;;18.04;81.83
81816;BME280;71249;52.084;5.304;2023-07-31T03:31:02;100823.0;;;18.03;81.64
81816;BME280;71249;52.084;5.304;2023-07-31T03:32:39;100826.0;;;18.11;81.44
81816;BME280;71249;52.084;5.304;2023-07-31T03:34:16;100831.0;;;18.02;81.34
81816;BME280;71249;52.084;5.304;2023-07-31T03:37:29;100825.0;;;18.02;81.52
81816;BME280;71249;52.084;5.304;2023-07-31T03:39:06;100827.0;;;18.03;81.55
81816;BME280;71249;52.084;5.304;2023-07-31T03:40:43;100827.0;;;18.04;81.11
81816;BME280;71249;52.084;5.304;2023-07-31T03:42:20;100823.0;;;18.06;81.16
81816;BME280;71249;52.084;5.304;2023-07-31T03:45:34;100830.0;;;17.96;81.34
81816;BME280;71249;52.084;5.304;2023-07-31T03:47:11;100828.0;;;17.98;81.05
81816;BME280;71249;52.084;5.304;2023-07-31T03:48:48;100820.0;;;18.04;81.11
81816;BME280;71249;52.084;5.304;2023-07-31T03:52:00;100826.0;;;17.95;81.09
81816;BME280;71249;52.084;5.304;2023-07-31T03:53:38;100822.0;;;17.87;81.69
81816;BME280;71249;52.084;5.304;2023-07-31T03:55:15;100825.0;;;17.91;81.55
81816;BME280;71249;52.084;5.304;2023-07-31T03:58:28;100828.0;;;17.88;81.66
81816;BME280;71249;52.084;5.304;2023-07-31T04:00:06;100821.0;;;17.89;81.42
81816;BME280;71249;52.084;5.304;2023-07-31T04:01:43;100822.0;;;17.84;81.98
81816;BME280;71249;52.084;5.304;2023-07-31T04:03:19;100821.0;;;17.89;81.27
81816;BME280;71249;52.084;5.304;2023-07-31T04:06:33;100821.0;;;17.91;81.44
81816;BME280;71249;52.084;5.304;2023-07-31T04:08:10;100812.0;;;17.77;81.61
81816;BME280;71249;52.084;5.304;2023-07-31T04:09:47;100805.0;;;17.88;81.2
81816;BME280;71249;52.084;5.304;2023-07-31T04:13:00;100807.0;;;17.86;81.39
81816;BME280;71249;52.084;5.304;2023-07-31T04:14:37;100805.0;;;17.95;80.72
81816;BME280;71249;52.084;5.304;2023-07-31T04:16:14;100802.0;;;17.75;81.13
81816;BME280;71249;52.084;5.304;2023-07-31T04:17:51;100795.0;;;17.77;81.09
81816;BME280;71249;52.084;5.304;2023-07-31T04:21:03;100785.0;;;17.78;81.36
81816;BME280;71249;52.084;5.304;2023-07-31T04:22:40;100778.0;;;17.77;81.25
81816;BME280;71249;52.084;5.304;2023-07-31T04:24:18;100777.0;;;17.84;81.08
81816;BME280;71249;52.084;5.304;2023-07-31T04:27:32;100780.0;;;17.81;81.2
81816;BME280;71249;52.084;5.304;2023-07-31T04:29:08;100783.0;;;17.72;80.97
81816;BME280;71249;52.084;5.304;2023-07-31T04:30:46;100786.0;;;17.68;81.8
81816;BME280;71249;52.084;5.304;2023-07-31T04:34:00;100787.0;;;17.61;81.66
81816;BME280;71249;52.084;5.304;2023-07-31T04:35:37;100789.0;;;17.52;81.09
81816;BME280;71249;52.084;5.304;2023-07-31T04:37:13;100783.0;;;17.77;81.05
81816;BME280;71249;52.084;5.304;2023-07-31T04:38:50;100780.0;;;17.77;81.33
81816;BME280;71249;52.084;5.304;2023-07-31T04:42:04;100784.0;;;17.66;81.41
81816;BME280;71249;52.084;5.304;2023-07-31T04:43:40;100784.0;;;17.77;81.11
81816;BME280;71249;52.084;5.304;2023-07-31T04:45:18;100785.0;;;17.61;81.27
81816;BME280;71249;52.084;5.304;2023-07-31T04:48:32;100785.0;;;17.56;81.69
81816;BME280;71249;52.084;5.304;2023-07-31T04:50:09;100781.0;;;17.72;80.94
81816;BME280;71249;52.084;5.304;2023-07-31T04:51:45;100785.0;;;17.66;81.28
81816;BME280;71249;52.084;5.304;2023-07-31T04:53:22;100777.0;;;17.66;81.13
81816;BME280;71249;52.084;5.304;2023-07-31T04:56:35;100772.0;;;17.7;81.19
81816;BME280;71249;52.084;5.304;2023-07-31T04:58:12;100772.0;;;17.75;81.11
81816;BME280;71249;52.084;5.304;2023-07-31T04:59:49;100766.0;;;17.75;81.22
81816;BME280;71249;52.084;5.304;2023-07-31T05:03:02;100759.0;;;17.61;81.94
81816;BME280;71249;52.084;5.304;2023-07-31T05:04:39;100762.0;;;17.71;81.44
81816;BME280;71249;52.084;5.304;2023-07-31T05:06:16;100761.0;;;17.73;81.56
81816;BME280;71249;52.084;5.304;2023-07-31T05:09:30;100756.0;;;17.78;81.48
81816;BME280;71249;52.084;5.304;2023-07-31T05:11:07;100756.0;;;17.7;81.84
81816;BME280;71249;52.084;5.304;2023-07-31T05:12:45;100758.0;;;17.59;82.13
81816;BME280;71249;52.084;5.304;2023-07-31T05:14:22;100759.0;;;17.68;81.88
81816;BME280;71249;52.084;5.304;2023-07-31T05:17:35;100761.0;;;17.64;81.91
81816;BME280;71249;52.084;5.304;2023-07-31T05:19:12;100762.0;;;17.63;82.04
81816;BME280;71249;52.084;5.304;2023-07-31T05:20:49;100759.0;;;17.8;81.37
81816;BME280;71249;52.084;5.304;2023-07-31T05:24:04;100745.0;;;17.61;81.66
81816;BME280;71249;52.084;5.304;2023-07-31T05:25:42;100752.0;;;17.75;81.5
81816;BME280;71249;52.084;5.304;2023-07-31T05:27:19;100753.0;;;17.73;81.52
81816;BME280;71249;52.084;5.304;2023-07-31T05:28:56;100755.0;;;17.79;81.23
81816;BME280;71249;52.084;5.304;2023-07-31T05:32:08;100751.0;;;17.68;81.49
81816;BME280;71249;52.084;5.304;2023-07-31T05:33:45;100753.0;;;17.62;81.58
81816;BME280;71249;52.084;5.304;2023-07-31T05:35:21;100736.0;;;17.62;81.66
81816;BME280;71249;52.084;5.304;2023-07-31T05:38:35;100733.0;;;17.56;82.05
81816;BME280;71249;52.084;5.304;2023-07-31T05:40:12;100736.0;;;17.54;81.88
81816;BME280;71249;52.084;5.304;2023-07-31T05:41:49;100727.0;;;17.5;81.96
81816;BME280;71249;52.084;5.304;2023-07-31T05:45:05;100722.0;;;17.43;81.87
81816;BME280;71249;52.084;5.304;2023-07-31T05:46:42;100731.0;;;17.61;81.69
81816;BME280;71249;52.084;5.304;2023-07-31T05:48:19;100726.0;;;17.45;82.2
81816;BME280;71249;52.084;5.304;2023-07-31T05:49:55;100720.0;;;17.62;81.92
81816;BME280;71249;52.084;5.304;2023-07-31T05:53:08;100719.0;;;17.63;82.08
81816;BME280;71249;52.084;5.304;2023-07-31T05:54:46;100709.0;;;17.52;82.05
81816;BME280;71249;52.084;5.304;2023-07-31T05:56:23;100710.0;;;17.59;82.18
81816;BME280;71249;52.084;5.304;2023-07-31T05:59:37;100714.0;;;17.61;82.18
81816;BME280;71249;52.084;5.304;2023-07-31T06:01:13;100707.0;;;17.59;82.37
81816;BME280;71249;52.084;5.304;2023-07-31T06:02:49;100710.0;;;17.52;82.35
81816;BME280;71249;52.084;5.304;2023-07-31T06:04:27;100707.0;;;17.52;82.28
81816;BME280;71249;52.084;5.304;2023-07-31T06:07:40;100702.0;;;17.54;82.33
81816;BME280;71249;52.084;5.304;2023-07-31T06:09:17;100698.0;;;17.56;82.45
81816;BME280;71249;52.084;5.304;2023-07-31T06:10:53;100703.0;;;17.61;82.4
81816;BME280;71249;52.084;5.304;2023-07-31T06:14:06;100700.0;;;17.56;82.21
81816;BME280;71249;52.084;5.304;2023-07-31T06:15:43;100701.0;;;17.61;82.32
81816;BME280;71249;52.084;5.304;2023-07-31T06:17:20;100695.0;;;17.43;82.39
81816;BME280;71249;52.084;5.304;2023-07-31T06:20:34;100688.0;;;17.55;82.31
81816;BME280;71249;52.084;5.304;2023-07-31T06:22:11;100692.0;;;17.61;82.45
81816;BME280;71249;52.084;5.304;2023-07-31T06:23:48;100696.0;;;17.54;82.55
81816;BME280;71249;52.084;5.304;2023-07-31T06:25:25;100689.0;;;17.57;82.61
81816;BME280;71249;52.084;5.304;2023-07-31T06:28:39;100690.0;;;17.56;82.37
81816;BME280;71249;52.084;5.304;2023-07-31T06:30:15;100690.0;;;17.68;82.41
81816;BME280;71249;52.084;5.304;2023-07-31T06:31:52;100686.0;;;17.84;82.02
81816;BME280;71249;52.084;5.304;2023-07-31T06:35:07;100688.0;;;17.75;82.08
81816;BME280;71249;52.084;5.304;2023-07-31T06:36:44;100686.0;;;17.77;82.34
81816;BME280;71249;52.084;5.304;2023-07-31T06:38:23;100685.0;;;17.72;82.37
81816;BME280;71249;52.084;5.304;2023-07-31T06:41:38;100675.0;;;17.75;82.62
81816;BME280;71249;52.084;5.304;2023-07-31T06:43:15;100670.0;;;17.52;82.95
81816;BME280;71249;52.084;5.304;2023-07-31T06:44:53;100667.0;;;17.81;82.38
81816;BME280;71249;52.084;5.304;2023-07-31T06:49:43;100666.0;;;17.73;82.82
81816;BME280;71249;52.084;5.304;2023-07-31T06:51:19;100664.0;;;17.62;83.2
81816;BME280;71249;52.084;5.304;2023-07-31T06:52:56;100659.0;;;17.75;82.98
81816;BME280;71249;52.084;5.304;2023-07-31T06:56:09;100648.0;;;17.79;83.0
81816;BME280;71249;52.084;5.304;2023-07-31T06:57:46;100655.0;;;17.77;83.07
81816;BME280;71249;52.084;5.304;2023-07-31T06:59:23;100649.0;;;17.75;83.07
81816;BME280;71249;52.084;5.304;2023-07-31T07:01:00;100651.0;;;17.95;82.8
81816;BME280;71249;52.084;5.304;2023-07-31T07:04:14;100648.0;;;18.03;82.58
81816;BME280;71249;52.084;5.304;2023-07-31T07:05:52;100647.0;;;18.04;82.73
81816;BME280;71249;52.084;5.304;2023-07-31T07:07:29;100645.0;;;18.14;82.53
81816;BME280;71249;52.084;5.304;2023-07-31T07:10:42;100643.0;;;18.14;82.55
81816;BME280;71249;52.084;5.304;2023-07-31T07:12:19;100653.0;;;18.06;82.77
81816;BME280;71249;52.084;5.304;2023-07-31T07:13:56;100644.0;;;18.05;82.86
81816;BME280;71249;52.084;5.304;2023-07-31T07:17:09;100641.0;;;18.11;82.71
81816;BME280;71249;52.084;5.304;2023-07-31T07:18:47;100635.0;;;18.13;82.56
81816;BME280;71249;52.084;5.304;2023-07-31T07:20:25;100656.0;;;18.16;82.56
81816;BME280;71249;52.084;5.304;2023-07-31T07:22:01;100641.0;;;18.18;82.66
81816;BME280;71249;52.084;5.304;2023-07-31T07:25:15;100649.0;;;17.93;83.15
81816;BME280;71249;52.084;5.304;2023-07-31T07:26:52;100648.0;;;18.18;82.87
81816;BME280;71249;52.084;5.304;2023-07-31T07:28:29;100640.0;;;18.11;82.86
81816;BME280;71249;52.084;5.304;2023-07-31T07:31:43;100645.0;;;18.27;82.75
81816;BME280;71249;52.084;5.304;2023-07-31T07:33:20;100643.0;;;18.11;82.53
81816;BME280;71249;52.084;5.304;2023-07-31T07:34:58;100644.0;;;18.29;82.39
81816;BME280;71249;52.084;5.304;2023-07-31T07:36:34;100644.0;;;18.22;82.81
81816;BME280;71249;52.084;5.304;2023-07-31T07:39:50;100638.0;;;18.21;82.8
81816;BME280;71249;52.084;5.304;2023-07-31T07:41:26;100638.0;;;18.13;82.78
81816;BME280;71249;52.084;5.304;2023-07-31T07:43:03;100645.0;;;18.27;82.74
81816;BME280;71249;52.084;5.304;2023-07-31T07:46:17;100635.0;;;18.38;82.53
81816;BME280;71249;52.084;5.304;2023-07-31T07:47:53;100642.0;;;18.29;82.75
81816;BME280;71249;52.084;5.304;2023-07-31T07:49:31;100633.0;;;18.41;82.91
81816;BME280;71249;52.084;5.304;2023-07-31T07:51:08;100634.0;;;18.36;83.03
81816;BME280;71249;52.084;5.304;2023-07-31T07:54:22;100628.0;;;18.46;82.59
81816;BME280;71249;52.084;5.304;2023-07-31T07:55:59;100634.0;;;18.3;83.35
81816;BME280;71249;52.084;5.304;2023-07-31T07:57:36;100634.0;;;18.16;83.24
81816;BME280;71249;52.084;5.304;2023-07-31T08:00:50;100638.0;;;18.21;83.21
81816;BME280;71249;52.084;5.304;2023-07-31T08:02:27;100627.0;;;18.3;83.4
81816;BME280;71249;52.084;5.304;2023-07-31T08:04:04;100624.0;;;18.41;83.34
81816;BME280;71249;52.084;5.304;2023-07-31T08:07:17;100622.0;;;18.5;83.05
81816;BME280;71249;52.084;5.304;2023-07-31T08:08:54;100613.0;;;18.53;82.76
81816;BME280;71249;52.084;5.304;2023-07-31T08:10:31;100625.0;;;18.38;83.23
81816;BME280;71249;52.084;5.304;2023-07-31T08:12:08;100621.0;;;18.43;83.13
81816;BME280;71249;52.084;5.304;2023-07-31T08:15:22;100619.0;;;18.63;82.94
81816;BME280;71249;52.084;5.304;2023-07-31T08:17:01;100616.0;;;18.56;83.08
81816;BME280;71249;52.084;5.304;2023-07-31T08:18:38;100614.0;;;18.57;82.99
81816;BME280;71249;52.084;5.304;2023-07-31T08:21:52;100613.0;;;18.62;82.78
81816;BME280;71249;52.084;5.304;2023-07-31T08:23:29;100605.0;;;18.61;83.03
81816;BME280;71249;52.084;5.304;2023-07-31T08:25:07;100605.0;;;18.72;83.09
81816;BME280;71249;52.084;5.304;2023-07-31T08:26:44;100599.0;;;18.7;82.76
81816;BME280;71249;52.084;5.304;2023-07-31T08:29:58;100601.0;;;18.75;82.78
81816;BME280;71249;52.084;5.304;2023-07-31T08:31:35;100605.0;;;18.59;83.0
81816;BME280;71249;52.084;5.304;2023-07-31T08:33:12;100598.0;;;18.68;82.78
81816;BME280;71249;52.084;5.304;2023-07-31T08:36:26;100600.0;;;18.71;82.92
81816;BME280;71249;52.084;5.304;2023-07-31T08:38:03;100595.0;;;18.86;82.92
81816;BME280;71249;52.084;5.304;2023-07-31T08:39:40;100596.0;;;18.7;83.03
81816;BME280;71249;52.084;5.304;2023-07-31T08:42:55;100594.0;;;18.8;83.11
81816;BME280;71249;52.084;5.304;2023-07-31T08:44:33;100598.0;;;18.75;83.14
81816;BME280;71249;52.084;5.304;2023-07-31T08:46:11;100597.0;;;18.81;83.1
81816;BME280;71249;52.084;5.304;2023-07-31T08:47:50;100595.0;;;18.61;83.89
81816;BME280;71249;52.084;5.304;2023-07-31T08:51:06;100603.0;;;18.75;83.55
81816;BME280;71249;52.084;5.304;2023-07-31T08:52:45;100595.0;;;18.91;83.49
81816;BME280;71249;52.084;5.304;2023-07-31T08:54:24;100597.0;;;18.8;83.72
81816;BME280;71249;52.084;5.304;2023-07-31T08:56:02;100589.0;;;19.0;83.24
81816;BME280;71249;52.084;5.304;2023-07-31T08:59:19;100592.0;;;18.97;83.44
81816;BME280;71249;52.084;5.304;2023-07-31T09:01:01;100600.0;;;19.04;82.94
81816;BME280;71249;52.084;5.304;2023-07-31T09:02:50;100594.0;;;18.95;83.24
81816;BME280;71249;52.084;5.304;2023-07-31T09:04:28;100600.0;;;18.97;82.59
81816;BME280;71249;52.084;5.304;2023-07-31T09:07:44;100605.0;;;18.96;82.6
81816;BME280;71249;52.084;5.304;2023-07-31T09:09:23;100610.0;;;19.14;82.49
81816;BME280;71249;52.084;5.304;2023-07-31T09:11:00;100607.0;;;19.13;82.67
81816;BME280;71249;52.084;5.304;2023-07-31T09:14:16;100606.0;;;19.21;82.35
81816;BME280;71249;52.084;5.304;2023-07-31T09:15:55;100606.0;;;19.14;82.11
81816;BME280;71249;52.084;5.304;2023-07-31T09:17:33;100605.0;;;19.05;82.5
81816;BME280;71249;52.084;5.304;2023-07-31T09:19:10;100597.0;;;19.2;82.01
81816;BME280;71249;52.084;5.304;2023-07-31T09:22:37;100601.0;;;19.11;82.72
81816;BME280;71249;52.084;5.304;2023-07-31T09:24:25;100592.0;;;19.23;82.95
81816;BME280;71249;52.084;5.304;2023-07-31T09:26:02;100591.0;;;19.28;83.04
81816;BME280;71249;52.084;5.304;2023-07-31T09:27:46;100589.0;;;19.09;82.71
81816;BME280;71249;52.084;5.304;2023-07-31T09:31:01;100594.0;;;19.2;82.53
81816;BME280;71249;52.084;5.304;2023-07-31T09:32:38;100588.0;;;19.32;82.63
81816;BME280;71249;52.084;5.304;2023-07-31T09:35:52;100582.0;;;19.48;82.81
81816;BME280;71249;52.084;5.304;2023-07-31T09:39:09;100580.0;;;19.5;83.02
81816;BME280;71249;52.084;5.304;2023-07-31T09:40:47;100584.0;;;19.66;82.45
81816;BME280;71249;52.084;5.304;2023-07-31T09:42:25;100578.0;;;19.59;82.34
81816;BME280;71249;52.084;5.304;2023-07-31T09:45:41;100580.0;;;19.72;82.64
81816;BME280;71249;52.084;5.304;2023-07-31T09:47:23;100590.0;;;19.68;82.46
81816;BME280;71249;52.084;5.304;2023-07-31T09:49:10;100583.0;;;19.52;82.26
81816;BME280;71249;52.084;5.304;2023-07-31T09:50:48;100580.0;;;19.68;82.13
81816;BME280;71249;52.084;5.304;2023-07-31T09:54:03;100585.0;;;19.75;82.07
81816;BME280;71249;52.084;5.304;2023-07-31T09:55:41;100583.0;;;19.52;82.28
81816;BME280;71249;52.084;5.304;2023-07-31T09:57:21;100588.0;;;19.48;82.07
81816;BME280;71249;52.084;5.304;2023-07-31T09:58:58;100590.0;;;19.57;82.0
81816;BME280;71249;52.084;5.304;2023-07-31T10:02:17;100582.0;;;19.54;82.21
81816;BME280;71249;52.084;5.304;2023-07-31T10:03:58;100585.0;;;19.52;81.72
81816;BME280;71249;52.084;5.304;2023-07-31T10:05:36;100578.0;;;19.52;81.95
81816;BME280;71249;52.084;5.304;2023-07-31T10:07:17;100576.0;;;19.57;82.09
81816;BME280;71249;52.084;5.304;2023-07-31T10:10:33;100574.0;;;19.64;82.35
81816;BME280;71249;52.084;5.304;2023-07-31T10:12:14;100573.0;;;19.41;82.13
81816;BME280;71249;52.084;5.304;2023-07-31T10:13:55;100574.0;;;19.66;81.97
81816;BME280;71249;52.084;5.304;2023-07-31T10:15:33;100568.0;;;19.59;81.91
81816;BME280;71249;52.084;5.304;2023-07-31T10:18:49;100580.0;;;19.5;81.83
81816;BME280;71249;52.084;5.304;2023-07-31T10:20:27;100580.0;;;19.63;81.84
81816;BME280;71249;52.084;5.304;2023-07-31T10:22:06;100580.0;;;19.66;81.95
81816;BME280;71249;52.084;5.304;2023-07-31T10:25:22;100581.0;;;19.7;81.53
81816;BME280;71249;52.084;5.304;2023-07-31T10:27:00;100580.0;;;19.56;81.83
81816;BME280;71249;52.084;5.304;2023-07-31T10:28:39;100580.0;;;19.7;81.61
81816;BME280;71249;52.084;5.304;2023-07-31T10:30:17;100586.0;;;19.52;81.78
81816;BME280;71249;52.084;5.304;2023-07-31T10:33:34;100582.0;;;19.45;82.47
81816;BME280;71249;52.084;5.304;2023-07-31T10:35:11;100578.0;;;19.56;82.08
81816;BME280;71249;52.084;5.304;2023-07-31T10:36:48;100575.0;;;19.59;81.96
81816;BME280;71249;52.084;5.304;2023-07-31T10:40:04;100575.0;;;19.59;81.72
81816;BME280;71249;52.084;5.304;2023-07-31T10:41:41;100573.0;;;19.34;82.43
81816;BME280;71249;52.084;5.304;2023-07-31T10:43:25;100578.0;;;19.59;82.32
81816;BME280;71249;52.084;5.304;2023-07-31T10:45:05;100576.0;;;19.38;82.49
81816;BME280;71249;52.084;5.304;2023-07-31T10:48:22;100574.0;;;19.62;82.13
81816;BME280;71249;52.084;5.304;2023-07-31T10:50:32;100578.0;;;19.73;82.46
81816;BME280;71249;52.084;5.304;2023-07-31T10:52:10;100578.0;;;19.53;82.71
81816;BME280;71249;52.084;5.304;2023-07-31T10:53:48;100578.0;;;19.68;82.68
81816;BME280;71249;52.084;5.304;2023-07-31T10:55:28;100577.0;;;19.7;82.15
81816;BME280;71249;52.084;5.304;2023-07-31T10:59:00;100572.0;;;19.8;82.15
81816;BME280;71249;52.084;5.304;2023-07-31T11:00:39;100573.0;;;19.88;82.34
81816;BME280;71249;52.084;5.304;2023-07-31T11:02:24;100566.0;;;19.88;82.31
81816;BME280;71249;52.084;5.304;2023-07-31T11:04:10;100567.0;;;19.93;82.72
81816;BME280;71249;52.084;5.304;2023-07-31T11:05:50;100573.0;;;19.93;82.37
81816;BME280;71249;52.084;5.304;2023-07-31T11:09:25;100575.0;;;19.93;82.25
81816;BME280;71249;52.084;5.304;2023-07-31T11:11:06;100583.0;;;19.91;82.18
81816;BME280;71249;52.084;5.304;2023-07-31T11:12:45;100585.0;;;20.02;82.02
81816;BME280;71249;52.084;5.304;2023-07-31T11:14:22;100580.0;;;20.0;81.62